Aviation Digital Data Service (ADDS)

Output produced by METARs form (0818 UTC 19 April 2019)
found at http://www.aviationweather.gov/metar/data/
 
Forecast for: WMKJ (JOHORE BHARU/SEN, MY)
Text: TAF WMKJ 190500Z 1906/2006 09005KT 9999 FEW018
Forecast period: 0600 to 1400 UTC 19 April 2019
Forecast type: FROM: standard forecast or significant change
Winds: from the E (90 degrees) at 6 MPH (5 knots; 2.6 m/s)
Visibility: 6 or more miles 10+ km)
Ceiling: at least 12,000 feet AGL
Clouds: few clouds at 1800 feet AGL
Weather: no significant weather forecast for this period
Text: TEMPO 1908/1912 13010KT 3000 TSRA FEW016CB SCT018
Forecast period: 0800 to 1200 UTC 19 April 2019
Forecast type: TEMPORARY: The following changes expected for less than half the time period
Winds: from the SE (130 degrees) at 12 MPH (10 knots; 5.1 m/s)
Visibility: 1.86 miles (2.99 km)
Ceiling: at least 12,000 feet AGL
Clouds: few clouds at 1600 feet AGL
scattered clouds at 1800 feet AGL
Weather: TSRA  (rain associated with thunderstorm(s))
Text: BECMG 1914/1916 VRB02KT FEW022
Forecast period: 1400 UTC 19 April 2019 to 0600 UTC 20 April 2019
Forecast type: BECOMING: Conditions expected to become as follows by 1600 UTC 19 April 2019
Winds: variable direction winds at 2 MPH (2 knots; 1.0 m/s)
Visibility: 6 or more miles 10+ km)
Ceiling: at least 12,000 feet AGL
Clouds: few clouds at 2200 feet AGL
Weather: no significant weather forecast for this period